createdAt,value
2017-09-08T00:00:28.991Z,1004.4
2017-09-08T00:01:50.503Z,1004.3
2017-09-08T00:02:51.907Z,1004.3
2017-09-08T00:04:13.399Z,1004.3
2017-09-08T00:05:14.801Z,1004.3
2017-09-08T00:06:36.342Z,1004.2
2017-09-08T00:07:37.752Z,1004.2
2017-09-08T00:08:59.236Z,1004.1
2017-09-08T00:10:00.665Z,1004.1
2017-09-08T00:11:22.155Z,1004.1
2017-09-08T00:12:23.558Z,1004.1
2017-09-08T00:13:45.074Z,1004.1
2017-09-08T00:14:46.477Z,1004.1
2017-09-08T00:16:07.969Z,1004.1
2017-09-08T00:17:09.370Z,1004.1
2017-09-08T00:18:30.886Z,1004.1
2017-09-08T00:19:32.294Z,1004.1
2017-09-08T00:20:53.781Z,1004.1
2017-09-08T00:21:55.185Z,1004.0
2017-09-08T00:23:16.699Z,1004.0
2017-09-08T00:24:18.106Z,1004.0
2017-09-08T00:25:39.596Z,1004.0
2017-09-08T00:26:40.999Z,1003.9
2017-09-08T00:28:02.512Z,1003.9
2017-09-08T00:29:03.918Z,1003.9
2017-09-08T00:30:25.410Z,1003.9
2017-09-08T00:31:26.812Z,1003.9
2017-09-08T00:32:48.322Z,1003.8
2017-09-08T00:33:49.728Z,1003.9
2017-09-08T00:35:11.220Z,1003.8
2017-09-08T00:36:12.622Z,1003.8
2017-09-08T00:37:34.131Z,1003.8
2017-09-08T00:38:35.537Z,1003.8
2017-09-08T00:39:57.026Z,1003.7
2017-09-08T00:40:58.429Z,1003.7
2017-09-08T00:42:19.941Z,1003.7
2017-09-08T00:43:21.346Z,1003.7
2017-09-08T00:44:42.836Z,1003.7
2017-09-08T00:45:44.241Z,1003.6
2017-09-08T00:47:05.785Z,1003.6
2017-09-08T00:48:07.158Z,1003.5
2017-09-08T00:49:28.650Z,1003.5
2017-09-08T00:50:30.052Z,1003.5
2017-09-08T00:51:51.546Z,1003.5
2017-09-08T00:52:52.950Z,1003.5
2017-09-08T00:54:14.461Z,1003.5
2017-09-08T00:55:15.866Z,1003.4
2017-09-08T00:56:37.358Z,1003.5
2017-09-08T00:57:38.761Z,1003.5
2017-09-08T00:59:00.273Z,1003.5
2017-09-08T01:00:01.680Z,1003.4
2017-09-08T01:01:23.169Z,1003.4
2017-09-08T01:02:24.574Z,1003.4
2017-09-08T01:03:46.087Z,1003.4
2017-09-08T01:04:47.491Z,1003.4
2017-09-08T01:06:08.980Z,1003.4
2017-09-08T01:07:10.382Z,1003.4
2017-09-08T01:08:31.898Z,1003.4
2017-09-08T01:09:33.301Z,1003.4
2017-09-08T01:10:54.791Z,1003.4
2017-09-08T01:11:56.196Z,1003.4
2017-09-08T01:13:17.709Z,1003.4
2017-09-08T01:14:19.114Z,1003.4
2017-09-08T01:15:40.609Z,1003.4
2017-09-08T01:16:42.013Z,1003.4
2017-09-08T01:18:03.525Z,1003.4
2017-09-08T01:19:04.929Z,1003.3
2017-09-08T01:20:26.425Z,1003.3
2017-09-08T01:21:27.830Z,1003.3
2017-09-08T01:22:49.485Z,1003.2
2017-09-08T01:23:50.884Z,1003.3
2017-09-08T01:25:12.375Z,1003.3
2017-09-08T01:26:13.778Z,1003.3
2017-09-08T01:27:35.294Z,1003.3
2017-09-08T01:28:36.698Z,1003.3
2017-09-08T01:29:58.190Z,1003.2
2017-09-08T01:30:59.592Z,1003.2
2017-09-08T01:32:21.090Z,1003.2
2017-09-08T01:33:22.492Z,1003.2
2017-09-08T01:34:44.006Z,1003.2
2017-09-08T01:35:45.412Z,1003.2
2017-09-08T01:37:06.903Z,1003.2
2017-09-08T01:38:08.306Z,1003.1
2017-09-08T01:39:29.819Z,1003.2
2017-09-08T01:40:31.224Z,1003.2
2017-09-08T01:41:52.717Z,1003.1
2017-09-08T01:42:54.120Z,1003.1
2017-09-08T01:44:15.632Z,1003.1
2017-09-08T01:45:17.035Z,1003.1
2017-09-08T01:46:38.530Z,1003.1
2017-09-08T01:47:39.936Z,1003.2
2017-09-08T01:49:01.447Z,1003.2
2017-09-08T01:50:02.853Z,1003.2
2017-09-08T01:51:24.344Z,1003.2
2017-09-08T01:52:25.749Z,1003.2
2017-09-08T01:53:47.260Z,1003.2
2017-09-08T01:54:48.666Z,1003.1
2017-09-08T01:56:10.153Z,1003.1
2017-09-08T01:57:11.557Z,1003.1
2017-09-08T01:58:33.067Z,1003.1
2017-09-08T01:59:34.472Z,1003.0
2017-09-08T02:00:55.961Z,1003.0
2017-09-08T02:01:57.365Z,1003.0
2017-09-08T02:03:18.881Z,1003.0
2017-09-08T02:04:20.288Z,1003.0
2017-09-08T02:05:41.782Z,1002.9
2017-09-08T02:06:43.185Z,1002.9
2017-09-08T02:08:04.699Z,1002.9
2017-09-08T02:09:06.103Z,1002.9
2017-09-08T02:10:27.594Z,1002.8
2017-09-08T02:11:28.996Z,1002.8
2017-09-08T02:12:50.508Z,1002.8
2017-09-08T02:13:51.912Z,1002.7
2017-09-08T02:15:13.406Z,1002.7
2017-09-08T02:16:14.808Z,1002.6
2017-09-08T02:17:36.301Z,1002.5
2017-09-08T02:18:37.705Z,1002.5
2017-09-08T02:19:59.214Z,1002.4
2017-09-08T02:21:00.620Z,1002.4
2017-09-08T02:22:22.112Z,1002.4
2017-09-08T02:23:23.513Z,1002.4
2017-09-08T02:24:45.029Z,1002.4
2017-09-08T02:25:46.435Z,1002.3
2017-09-08T02:27:07.926Z,1002.3
2017-09-08T02:28:09.328Z,1002.2
2017-09-08T02:29:30.843Z,1002.2
2017-09-08T02:30:32.247Z,1002.2
2017-09-08T02:31:53.741Z,1002.2
2017-09-08T02:32:55.148Z,1002.2
2017-09-08T02:34:16.658Z,1002.2
2017-09-08T02:35:18.061Z,1002.1
2017-09-08T02:36:39.561Z,1002.1
2017-09-08T02:37:40.962Z,1002.1
2017-09-08T02:39:02.473Z,1002.1
2017-09-08T02:40:03.876Z,1002.1
2017-09-08T02:41:25.373Z,1002.1
2017-09-08T02:42:26.778Z,1002.0
2017-09-08T02:43:48.288Z,1002.0
2017-09-08T02:44:49.692Z,1002.0
2017-09-08T02:46:11.183Z,1002.0
2017-09-08T02:47:12.584Z,1002.0
2017-09-08T02:48:34.103Z,1002.0
2017-09-08T02:49:35.506Z,1002.0
2017-09-08T02:50:56.993Z,1001.9
2017-09-08T02:51:58.403Z,1001.9
2017-09-08T02:53:19.943Z,1001.9
2017-09-08T02:54:21.344Z,1001.8
2017-09-08T02:55:42.839Z,1001.8
2017-09-08T02:56:44.250Z,1001.7
2017-09-08T02:58:05.741Z,1001.7
2017-09-08T02:59:07.149Z,1001.7
2017-09-08T03:00:28.660Z,1001.6
2017-09-08T03:01:30.066Z,1001.6
2017-09-08T03:02:51.553Z,1001.6
2017-09-08T03:03:52.959Z,1001.6
2017-09-08T03:05:14.475Z,1001.6
2017-09-08T03:06:15.880Z,1001.6
2017-09-08T03:07:37.375Z,1001.5
2017-09-08T03:08:38.773Z,1001.5
2017-09-08T03:10:00.284Z,1001.5
2017-09-08T03:11:01.689Z,1001.4
2017-09-08T03:12:23.186Z,1001.4
2017-09-08T03:13:24.589Z,1001.4
2017-09-08T03:14:46.097Z,1001.4
2017-09-08T03:15:47.501Z,1001.5
2017-09-08T03:17:08.994Z,1001.4
2017-09-08T03:18:10.395Z,1001.4
2017-09-08T03:19:31.905Z,1001.5
2017-09-08T03:20:33.309Z,1001.5
2017-09-08T03:21:54.802Z,1001.4
2017-09-08T03:22:56.204Z,1001.4
2017-09-08T03:24:17.713Z,1001.4
2017-09-08T03:25:19.116Z,1001.4
2017-09-08T03:26:40.608Z,1001.3
2017-09-08T03:27:42.011Z,1001.3
2017-09-08T03:29:03.523Z,1001.3
2017-09-08T03:30:04.927Z,1001.2
2017-09-08T03:31:26.416Z,1001.3
2017-09-08T03:32:27.821Z,1001.2
2017-09-08T03:33:49.330Z,1001.2
2017-09-08T03:34:50.735Z,1001.2
2017-09-08T03:36:12.259Z,1001.2
2017-09-08T03:37:13.633Z,1001.2
2017-09-08T03:38:35.163Z,1001.2
2017-09-08T03:39:36.565Z,1001.2
2017-09-08T03:40:58.057Z,1001.2
2017-09-08T03:41:59.457Z,1001.1
2017-09-08T03:43:20.958Z,1001.1
2017-09-08T03:44:22.359Z,1001.0
2017-09-08T03:45:43.872Z,1001.1
2017-09-08T03:46:45.281Z,1001.0
2017-09-08T03:48:06.768Z,1001.0
2017-09-08T03:49:08.169Z,1001.0
2017-09-08T03:50:29.687Z,1001.0
2017-09-08T03:51:31.088Z,1000.9
2017-09-08T03:52:52.798Z,1000.9
2017-09-08T03:53:54.199Z,1000.9
2017-09-08T03:55:15.709Z,1001.0
2017-09-08T03:56:17.108Z,1000.9
2017-09-08T03:57:38.599Z,1000.9
2017-09-08T03:58:40.001Z,1000.9
2017-09-08T04:00:01.517Z,1000.9
2017-09-08T04:01:02.922Z,1000.9
2017-09-08T04:02:24.410Z,1000.8
2017-09-08T04:03:25.812Z,1000.8
2017-09-08T04:04:47.326Z,1000.8
2017-09-08T04:05:48.729Z,1000.9
2017-09-08T04:07:10.221Z,1000.8
2017-09-08T04:08:11.625Z,1000.8
2017-09-08T04:09:33.135Z,1000.7
2017-09-08T04:10:34.538Z,1000.8
2017-09-08T04:11:56.035Z,1000.8
2017-09-08T04:12:57.437Z,1000.7
2017-09-08T04:14:18.953Z,1000.7
2017-09-08T04:15:20.353Z,1000.7
2017-09-08T04:16:41.845Z,1000.6
2017-09-08T04:17:43.248Z,1000.6
2017-09-08T04:19:04.761Z,1000.6
2017-09-08T04:20:06.168Z,1000.6
2017-09-08T04:21:27.653Z,1000.5
2017-09-08T04:22:29.057Z,1000.5
2017-09-08T04:23:50.548Z,1000.5
2017-09-08T04:24:51.951Z,1000.5
2017-09-08T04:26:13.461Z,1000.4
2017-09-08T04:27:14.869Z,1000.4
2017-09-08T04:28:36.357Z,1000.4
2017-09-08T04:29:37.762Z,1000.3
2017-09-08T04:30:59.272Z,1000.3
2017-09-08T04:32:00.676Z,1000.3
2017-09-08T04:33:22.381Z,1000.3
2017-09-08T04:34:23.788Z,1000.2
2017-09-08T04:35:45.326Z,1000.2
2017-09-08T04:36:46.727Z,1000.2
2017-09-08T04:38:08.223Z,1000.2
2017-09-08T04:39:09.626Z,1000.1
2017-09-08T04:40:31.142Z,1000.1
2017-09-08T04:41:32.553Z,1000.1
2017-09-08T04:42:54.041Z,1000.1
2017-09-08T04:43:55.444Z,1000.0
2017-09-08T04:45:16.957Z,1000.0
2017-09-08T04:46:18.368Z,1000.1
2017-09-08T04:47:39.856Z,1000.1
2017-09-08T04:48:41.258Z,1000.1
2017-09-08T04:50:02.775Z,1000.1
2017-09-08T04:51:04.179Z,1000.1
2017-09-08T04:52:25.671Z,1000.1
2017-09-08T04:53:27.073Z,1000.1
2017-09-08T04:54:48.585Z,1000.1
2017-09-08T04:55:49.989Z,1000.0
2017-09-08T04:57:11.486Z,1000.0
2017-09-08T04:58:12.894Z,1000.1
2017-09-08T04:59:34.413Z,1000.1
2017-09-08T05:00:35.816Z,1000.1
2017-09-08T05:01:57.308Z,1000.0
2017-09-08T05:02:58.713Z,1000.0
2017-09-08T05:04:20.207Z,1000.0
2017-09-08T05:05:21.609Z,1000.0
2017-09-08T05:06:43.130Z,1000.0
2017-09-08T05:07:44.528Z,999.9
2017-09-08T05:09:06.019Z,999.9
2017-09-08T05:10:07.421Z,999.9
2017-09-08T05:11:28.937Z,1000.0
2017-09-08T05:12:30.340Z,999.9
2017-09-08T05:13:51.830Z,999.9
2017-09-08T05:14:53.236Z,999.9
2017-09-08T05:16:14.746Z,999.9
2017-09-08T05:17:16.158Z,999.8
2017-09-08T05:18:37.650Z,999.9
2017-09-08T05:19:39.055Z,999.9
2017-09-08T05:21:00.566Z,999.9
2017-09-08T05:22:01.969Z,999.9
2017-09-08T05:23:23.462Z,999.9
2017-09-08T05:24:24.865Z,999.8
2017-09-08T05:25:46.395Z,999.8
2017-09-08T05:26:47.800Z,999.8
2017-09-08T05:28:09.297Z,999.8
2017-09-08T05:29:10.702Z,999.8
2017-09-08T05:30:32.218Z,999.7
2017-09-08T05:31:33.625Z,999.7
2017-09-08T05:32:55.119Z,999.7
2017-09-08T05:33:56.525Z,999.7
2017-09-08T05:35:18.039Z,999.7
2017-09-08T05:36:19.447Z,999.7
2017-09-08T05:37:40.938Z,999.7
2017-09-08T05:38:42.342Z,999.7
2017-09-08T05:40:03.890Z,999.6
2017-09-08T05:41:05.270Z,999.6
2017-09-08T05:42:26.763Z,999.7
2017-09-08T05:43:28.166Z,999.7
2017-09-08T05:44:49.687Z,999.7
2017-09-08T05:45:51.093Z,999.7
2017-09-08T05:47:12.590Z,999.6
2017-09-08T05:48:13.990Z,999.6
2017-09-08T05:49:35.495Z,999.6
2017-09-08T05:50:36.903Z,999.6
2017-09-08T05:51:58.427Z,999.6
2017-09-08T05:52:59.832Z,999.6
2017-09-08T05:54:21.368Z,999.6
2017-09-08T05:55:22.771Z,999.6
2017-09-08T05:56:44.288Z,999.5
2017-09-08T05:57:45.694Z,999.5
2017-09-08T05:59:07.199Z,999.5
2017-09-08T06:00:08.604Z,999.5
2017-09-08T06:01:30.120Z,999.5
2017-09-08T06:02:31.521Z,999.5
2017-09-08T06:03:53.020Z,999.5
2017-09-08T06:04:54.423Z,999.5
2017-09-08T06:06:15.940Z,999.5
2017-09-08T06:07:17.345Z,999.4
2017-09-08T06:08:38.842Z,999.4
2017-09-08T06:09:40.249Z,999.4
2017-09-08T06:11:01.769Z,999.4
2017-09-08T06:12:03.174Z,999.4
2017-09-08T06:13:24.674Z,999.3
2017-09-08T06:14:26.079Z,999.3
2017-09-08T06:15:47.593Z,999.3
2017-09-08T06:16:49.001Z,999.3
2017-09-08T06:18:10.499Z,999.3
2017-09-08T06:19:11.905Z,999.3
2017-09-08T06:20:33.424Z,999.3
2017-09-08T06:21:34.832Z,999.2
2017-09-08T06:22:56.328Z,999.2
2017-09-08T06:23:57.733Z,999.2
2017-09-08T06:25:19.254Z,999.2
2017-09-08T06:26:20.662Z,999.2
2017-09-08T06:27:42.160Z,999.2
2017-09-08T06:28:43.567Z,999.2
2017-09-08T06:30:05.069Z,999.2
2017-09-08T06:31:06.474Z,999.2
2017-09-08T06:32:27.994Z,999.2
2017-09-08T06:33:29.402Z,999.2
2017-09-08T06:34:50.901Z,999.1
2017-09-08T06:35:52.308Z,999.1
2017-09-08T06:37:13.828Z,999.1
2017-09-08T06:38:15.237Z,999.1
2017-09-08T06:39:36.731Z,999.1
2017-09-08T06:40:38.137Z,999.1
2017-09-08T06:41:59.669Z,999.1
2017-09-08T06:43:01.068Z,999.1
2017-09-08T06:44:22.567Z,999.0
2017-09-08T06:45:23.975Z,999.0
2017-09-08T06:46:45.502Z,999.0
2017-09-08T06:47:46.906Z,999.0
2017-09-08T06:49:08.411Z,999.0
2017-09-08T06:50:09.815Z,998.9
2017-09-08T06:51:31.346Z,998.8
2017-09-08T06:52:32.754Z,998.8
2017-09-08T06:53:54.258Z,998.8
2017-09-08T06:54:55.665Z,998.8
2017-09-08T06:56:17.185Z,998.8
2017-09-08T06:57:18.593Z,998.7
2017-09-08T06:58:40.097Z,998.7
2017-09-08T06:59:41.504Z,998.6
2017-09-08T07:01:03.035Z,998.7
2017-09-08T07:02:04.443Z,998.6
2017-09-08T07:03:25.953Z,998.6
2017-09-08T07:04:27.353Z,998.6
2017-09-08T07:05:48.874Z,998.7
2017-09-08T07:06:50.282Z,998.6
2017-09-08T07:08:11.783Z,998.6
2017-09-08T07:09:13.188Z,998.6
2017-09-08T07:10:34.688Z,998.7
2017-09-08T07:11:36.095Z,998.7
2017-09-08T07:12:57.620Z,998.7
2017-09-08T07:13:59.024Z,998.6
2017-09-08T07:15:20.528Z,998.7
2017-09-08T07:16:21.945Z,998.7
2017-09-08T07:17:43.459Z,998.7
2017-09-08T07:18:44.867Z,998.7
2017-09-08T07:20:06.370Z,998.6
2017-09-08T07:21:07.775Z,998.6
2017-09-08T07:22:29.292Z,998.6
2017-09-08T07:23:30.704Z,998.6
2017-09-08T07:24:52.207Z,998.7
2017-09-08T07:25:53.616Z,998.6
2017-09-08T07:27:15.136Z,998.7
2017-09-08T07:28:16.544Z,998.7
2017-09-08T07:29:38.047Z,998.7
2017-09-08T07:30:39.454Z,998.6
2017-09-08T07:32:00.974Z,998.6
2017-09-08T07:33:02.386Z,998.6
2017-09-08T07:34:23.885Z,998.5
2017-09-08T07:35:25.298Z,998.6
2017-09-08T07:36:46.814Z,998.5
2017-09-08T07:37:48.223Z,998.5
2017-09-08T07:39:09.726Z,998.5
2017-09-08T07:40:11.137Z,998.5
2017-09-08T07:41:32.657Z,998.5
2017-09-08T07:42:34.066Z,998.6
2017-09-08T07:43:55.570Z,998.5
2017-09-08T07:44:56.976Z,998.6
2017-09-08T07:46:18.495Z,998.5
2017-09-08T07:47:19.904Z,998.6
2017-09-08T07:48:41.408Z,998.5
2017-09-08T07:49:42.967Z,998.6
2017-09-08T07:51:04.485Z,998.4
2017-09-08T07:52:05.896Z,998.4
2017-09-08T07:53:27.397Z,998.5
2017-09-08T07:54:28.805Z,998.4
2017-09-08T07:55:50.304Z,998.4
2017-09-08T07:56:51.713Z,998.5
2017-09-08T07:58:13.238Z,998.5
2017-09-08T07:59:14.644Z,998.4
2017-09-08T08:00:36.163Z,998.4
2017-09-08T08:01:37.573Z,998.4
2017-09-08T08:02:59.112Z,998.4
2017-09-08T08:04:00.825Z,998.4
2017-09-08T08:05:22.469Z,998.5
2017-09-08T08:06:23.900Z,998.5
2017-09-08T08:07:45.513Z,998.5
2017-09-08T08:08:46.930Z,998.5
2017-09-08T08:10:08.508Z,998.4
2017-09-08T08:11:09.915Z,998.5
2017-09-08T08:12:31.603Z,998.5
2017-09-08T08:13:33.118Z,998.4
2017-09-08T08:14:54.619Z,998.4
2017-09-08T08:15:56.026Z,998.4
2017-09-08T08:17:17.547Z,998.4
2017-09-08T08:18:18.957Z,998.3
2017-09-08T08:19:40.461Z,998.3
2017-09-08T08:20:41.870Z,998.3
2017-09-08T08:22:03.389Z,998.3
2017-09-08T08:23:04.798Z,998.2
2017-09-08T08:24:26.298Z,998.3
2017-09-08T08:25:27.712Z,998.3
2017-09-08T08:26:49.236Z,998.3
2017-09-08T08:27:50.650Z,998.3
2017-09-08T08:29:12.161Z,998.3
2017-09-08T08:30:13.570Z,998.2
2017-09-08T08:31:35.097Z,998.2
2017-09-08T08:32:36.502Z,998.3
2017-09-08T08:33:58.001Z,998.3
2017-09-08T08:34:59.409Z,998.2
2017-09-08T08:36:20.909Z,998.2
2017-09-08T08:37:22.320Z,998.2
2017-09-08T08:38:43.846Z,998.3
2017-09-08T08:39:45.250Z,998.3
2017-09-08T08:41:06.753Z,998.3
2017-09-08T08:42:08.159Z,998.3
2017-09-08T08:43:29.764Z,998.3
2017-09-08T08:44:31.503Z,998.4
2017-09-08T08:45:53.249Z,998.3
2017-09-08T08:46:54.797Z,998.3
2017-09-08T08:48:16.571Z,998.3
2017-09-08T08:49:18.123Z,998.3
2017-09-08T08:50:39.984Z,998.3
2017-09-08T08:51:41.511Z,998.3
2017-09-08T08:53:03.474Z,998.3
2017-09-08T08:54:05.076Z,998.3
2017-09-08T08:55:26.711Z,998.3
2017-09-08T08:56:28.277Z,998.3
2017-09-08T08:57:50.262Z,998.3
2017-09-08T08:58:51.868Z,998.3
2017-09-08T09:00:13.575Z,998.3
2017-09-08T09:01:15.142Z,998.3
2017-09-08T09:02:36.835Z,998.3
2017-09-08T09:03:38.411Z,998.3
2017-09-08T09:05:00.141Z,998.3
2017-09-08T09:06:01.715Z,998.2
2017-09-08T09:07:25.715Z,998.2
2017-09-08T18:27:08.313Z,994.7
2017-09-08T18:28:09.720Z,994.7
2017-09-08T18:29:31.220Z,994.7
2017-09-08T18:30:32.629Z,994.7
2017-09-08T18:31:54.169Z,994.7
2017-09-08T18:32:55.623Z,994.7
2017-09-08T18:34:17.237Z,994.7
2017-09-08T18:35:18.638Z,994.7
2017-09-08T18:36:40.684Z,994.7
2017-09-08T18:37:42.117Z,994.6
2017-09-08T18:39:03.654Z,994.6
2017-09-08T18:40:05.054Z,994.7
2017-09-08T18:41:26.584Z,994.7
2017-09-08T18:42:28.235Z,994.7
2017-09-08T18:43:49.801Z,994.7
2017-09-08T18:44:51.207Z,994.6
2017-09-08T18:46:12.871Z,994.7
2017-09-08T18:47:14.340Z,994.7
2017-09-08T18:48:35.868Z,994.7
2017-09-08T18:49:37.297Z,994.6
2017-09-08T18:50:59.429Z,994.6
2017-09-08T18:52:00.919Z,994.6
2017-09-08T18:53:27.560Z,994.6
2017-09-08T18:54:28.967Z,994.6
2017-09-08T18:55:52.001Z,994.5
2017-09-08T18:56:53.399Z,994.5
2017-09-08T18:58:14.943Z,994.4
2017-09-08T18:59:16.343Z,994.4
2017-09-08T19:00:37.940Z,994.4
2017-09-08T19:01:39.394Z,994.4
2017-09-08T19:03:01.009Z,994.5
2017-09-08T19:04:02.407Z,994.4
2017-09-08T19:05:24.259Z,994.4
2017-09-08T19:06:25.869Z,994.4
2017-09-08T19:07:48.020Z,994.3
2017-09-08T19:08:49.461Z,994.3
2017-09-08T19:10:11.542Z,994.3
2017-09-08T19:11:12.986Z,994.3
2017-09-08T19:12:36.026Z,994.3
2017-09-08T19:13:37.473Z,994.4
2017-09-08T19:14:59.099Z,994.4
2017-09-08T19:16:00.575Z,994.4
2017-09-08T19:17:22.180Z,994.4
2017-09-08T19:18:23.741Z,994.4
2017-09-08T19:19:45.328Z,994.3
2017-09-08T19:20:46.730Z,994.2
2017-09-08T19:22:08.386Z,994.1
2017-09-08T19:23:09.789Z,994.1
2017-09-08T19:24:31.908Z,994.1
2017-09-08T19:25:33.365Z,994.1
2017-09-08T19:26:54.939Z,994.2
2017-09-08T19:27:56.341Z,994.2
2017-09-08T19:29:17.862Z,994.2
2017-09-08T19:30:19.268Z,994.3
2017-09-08T19:31:40.839Z,994.3
2017-09-08T19:32:42.240Z,994.3
2017-09-08T19:34:03.811Z,994.2
2017-09-08T19:35:05.211Z,994.1
2017-09-08T19:36:27.252Z,994.0
2017-09-08T19:37:28.656Z,994.0
2017-09-08T19:38:50.227Z,994.0
2017-09-08T19:39:51.633Z,994.0
2017-09-08T19:41:13.603Z,994.0
2017-09-08T19:42:15.014Z,994.0
2017-09-08T19:43:36.650Z,994.0
2017-09-08T19:44:38.052Z,994.0
2017-09-08T19:45:59.714Z,994.0
2017-09-08T19:47:01.118Z,994.0
2017-09-08T19:48:22.742Z,993.9
2017-09-08T19:49:24.147Z,993.9
2017-09-08T19:50:45.673Z,993.9
2017-09-08T19:51:47.074Z,994.0
2017-09-08T19:53:08.657Z,994.0
2017-09-08T19:54:10.054Z,993.9
2017-09-08T19:55:31.577Z,993.9
2017-09-08T19:56:32.981Z,993.9
2017-09-08T19:57:54.544Z,993.9
2017-09-08T19:58:55.951Z,993.8
2017-09-08T20:00:18.008Z,993.8
2017-09-08T20:01:19.416Z,993.8
2017-09-08T20:02:40.939Z,993.8
2017-09-08T20:03:42.341Z,993.7
2017-09-08T20:05:03.910Z,993.7
2017-09-08T20:06:05.313Z,993.7
2017-09-08T20:07:26.840Z,993.8
2017-09-08T20:08:28.241Z,993.7
2017-09-08T20:09:49.814Z,993.7
2017-09-08T20:10:51.226Z,993.7
2017-09-08T20:12:12.767Z,993.7
2017-09-08T20:13:14.169Z,993.6
2017-09-08T20:14:35.719Z,993.6
2017-09-08T20:15:37.315Z,993.6
2017-09-08T20:16:58.857Z,993.6
2017-09-08T20:18:00.260Z,993.7
2017-09-08T20:19:21.853Z,993.7
2017-09-08T20:20:23.256Z,993.6
2017-09-08T20:21:45.056Z,993.6
2017-09-08T20:22:46.443Z,993.7
2017-09-08T20:24:08.042Z,993.7
2017-09-08T20:25:09.470Z,993.6
2017-09-08T20:26:31.124Z,993.5
2017-09-08T20:27:32.525Z,993.5
2017-09-08T20:28:54.144Z,993.6
2017-09-08T20:29:55.557Z,993.5
2017-09-08T20:31:17.068Z,993.4
2017-09-08T20:32:18.474Z,993.5
2017-09-08T20:33:40.594Z,993.4
2017-09-08T20:34:42.032Z,993.4
2017-09-08T20:36:04.130Z,993.4
2017-09-08T20:37:05.533Z,993.4
2017-09-08T20:38:27.067Z,993.4
2017-09-08T20:39:28.469Z,993.4
2017-09-08T20:40:50.006Z,993.3
2017-09-08T20:41:51.403Z,993.2
2017-09-08T20:43:13.520Z,993.3
2017-09-08T20:44:14.926Z,993.2
2017-09-08T20:45:36.533Z,993.3
2017-09-08T20:46:37.961Z,993.2
2017-09-08T20:47:59.579Z,993.2
2017-09-08T20:49:00.976Z,993.2
2017-09-08T20:50:22.586Z,993.2
2017-09-08T20:51:23.988Z,993.2
2017-09-08T20:52:45.651Z,993.2
2017-09-08T20:53:47.093Z,993.2
2017-09-08T20:55:08.663Z,993.2
2017-09-08T20:56:10.065Z,993.2
2017-09-08T20:57:34.654Z,993.2
